Muskoka Falls, Canada
Current Conditions -  °F | °C
As of 10:00 PM on Tuesday 21 Oct 2014 (Local Time) from CYQA Reporting Station
Clear Clear  
Wind Chill: 34°   Ceiling: Unl
Heat Index: 37°   Visibility: 9mi
Dew Point: 34°   Wind: 5mph
Humidity: 87%   Direction: 350°N
Pressure: 30.19"   Gusts: NA
Location:  45°N, 79.3°W
Report Text: CYQA 220200Z AUTO 35004KT 9SM CLR 03/01 A3019 RMK SLP233
Loading
Personal Weather Stations






























Interactive Weather Map
Tropical Storm Tracking
New forecast layout! Learn more

10-Day Weather Forecast

Advertisements
Track Severe Weather on mobile